createdAt,value
2023-05-02T00:02:13.731Z,4.07
2023-05-02T00:04:42.320Z,3.70
2023-05-02T00:07:10.716Z,3.57
2023-05-02T00:09:39.032Z,3.30
2023-05-02T00:12:07.476Z,4.47
2023-05-02T00:14:35.838Z,4.17
2023-05-02T00:17:04.211Z,3.40
2023-05-02T00:19:33.884Z,3.03
2023-05-02T00:22:02.573Z,5.50
2023-05-02T00:24:30.966Z,3.90
2023-05-02T00:26:59.277Z,4.20
2023-05-02T00:29:27.592Z,3.83
2023-05-02T00:31:55.907Z,4.40
2023-05-02T00:34:24.251Z,4.20
2023-05-02T00:36:53.913Z,4.23
2023-05-02T00:39:22.399Z,4.20
2023-05-02T00:41:50.768Z,3.30
2023-05-02T00:44:19.099Z,3.20
2023-05-02T00:46:47.473Z,3.87
2023-05-02T00:49:15.899Z,4.73
2023-05-02T00:51:44.214Z,4.10
2023-05-02T00:54:14.046Z,3.23
2023-05-02T00:56:42.405Z,3.53
2023-05-02T00:59:12.383Z,4.03
2023-05-02T01:01:47.612Z,4.10
2023-05-02T01:04:22.623Z,3.90
2023-05-02T01:06:56.245Z,4.67
2023-05-02T01:09:31.302Z,3.37
2023-05-02T01:12:04.449Z,4.17
2023-05-02T01:14:35.128Z,4.67
2023-05-02T01:17:05.650Z,4.80
2023-05-02T01:19:35.834Z,3.80
2023-05-02T01:22:05.400Z,4.67
2023-05-02T01:24:38.708Z,3.70
2023-05-02T01:27:12.486Z,3.60
2023-05-02T01:29:43.982Z,3.20
2023-05-02T01:32:12.848Z,3.60
2023-05-02T01:34:42.546Z,4.00
2023-05-02T01:37:12.957Z,4.63
2023-05-02T01:39:41.934Z,3.97
2023-05-02T01:42:11.098Z,4.83
2023-05-02T01:44:40.655Z,3.77
2023-05-02T01:47:11.309Z,4.13
2023-05-02T01:49:40.659Z,3.23
2023-05-02T01:52:11.527Z,4.00
2023-05-02T01:54:40.641Z,4.70
2023-05-02T01:57:09.821Z,3.57
2023-05-02T01:59:38.862Z,3.73
2023-05-02T02:02:08.589Z,3.30
2023-05-02T02:04:39.793Z,4.07
2023-05-02T02:07:10.024Z,3.13
2023-05-02T02:09:38.565Z,3.40
2023-05-02T02:12:08.250Z,4.10
2023-05-02T02:14:38.381Z,3.63
2023-05-02T02:17:08.202Z,4.97
2023-05-02T02:19:38.731Z,2.77
2023-05-02T02:22:08.441Z,3.67
2023-05-02T02:24:37.115Z,4.27
2023-05-02T02:27:05.547Z,4.67
2023-05-02T02:29:34.279Z,3.97
2023-05-02T02:32:02.622Z,3.47
2023-05-02T02:34:30.937Z,4.63
2023-05-02T02:37:03.342Z,4.70
2023-05-02T02:39:37.523Z,4.53
2023-05-02T02:42:10.127Z,4.20
2023-05-02T02:44:44.135Z,3.87
2023-05-02T02:47:13.737Z,3.03
2023-05-02T02:49:47.559Z,4.37
2023-05-02T02:52:20.283Z,4.90
2023-05-02T02:54:49.502Z,3.47
2023-05-02T02:57:19.576Z,3.43
2023-05-02T02:59:56.131Z,4.03
2023-05-02T03:02:28.487Z,3.60
2023-05-02T03:04:57.462Z,3.20
2023-05-02T03:07:29.220Z,3.60
2023-05-02T03:09:58.144Z,3.77
2023-05-02T03:12:26.632Z,3.87
2023-05-02T03:14:54.969Z,3.20
2023-05-02T03:17:25.648Z,4.43
2023-05-02T03:19:54.921Z,4.13
2023-05-02T03:22:23.221Z,3.83
2023-05-02T03:24:52.887Z,4.53
2023-05-02T03:27:21.248Z,4.80
2023-05-02T03:29:49.550Z,4.90
2023-05-02T03:32:17.858Z,4.10
2023-05-02T03:34:46.309Z,3.80
2023-05-02T03:37:14.598Z,3.93
2023-05-02T03:39:42.948Z,4.03
2023-05-02T03:42:12.862Z,3.40
2023-05-02T03:44:41.201Z,3.80
2023-05-02T03:47:09.676Z,3.17
2023-05-02T03:49:38.001Z,4.00
2023-05-02T03:52:06.293Z,4.33
2023-05-02T03:54:34.608Z,5.07
2023-05-02T03:57:04.757Z,4.67
2023-05-02T03:59:36.097Z,5.30
2023-05-02T04:02:04.472Z,5.27
2023-05-02T04:04:34.350Z,5.20
2023-05-02T04:07:03.098Z,5.40
2023-05-02T04:09:31.416Z,5.50
2023-05-02T04:11:59.802Z,5.27
2023-05-02T04:14:28.174Z,3.83
2023-05-02T04:16:57.934Z,4.97
2023-05-02T04:19:26.354Z,4.70
2023-05-02T04:21:54.726Z,5.33
2023-05-02T04:24:24.026Z,4.03
2023-05-02T04:26:52.454Z,5.33
2023-05-02T04:29:20.781Z,4.80
2023-05-02T04:31:50.902Z,4.67
2023-05-02T04:34:20.657Z,5.97
2023-05-02T04:36:49.170Z,5.53
2023-05-02T04:39:17.498Z,5.60
2023-05-02T04:41:46.357Z,4.83
2023-05-02T04:44:14.713Z,6.00
2023-05-02T04:46:43.111Z,4.50
2023-05-02T04:49:11.675Z,6.57
2023-05-02T04:51:41.660Z,4.63
2023-05-02T04:54:10.117Z,6.27
2023-05-02T04:56:38.475Z,6.23
2023-05-02T04:59:06.830Z,4.43
2023-05-02T05:01:35.248Z,5.57
2023-05-02T05:04:03.744Z,4.30
2023-05-02T05:06:33.042Z,4.70
2023-05-02T05:09:03.550Z,4.97
2023-05-02T05:11:31.648Z,4.73
2023-05-02T05:13:59.714Z,5.50
2023-05-02T05:16:28.904Z,5.67
2023-05-02T05:18:57.266Z,6.77
2023-05-02T05:21:25.274Z,6.40
2023-05-02T05:23:53.286Z,6.07
2023-05-02T05:26:23.825Z,5.10
2023-05-02T05:28:52.374Z,6.00
2023-05-02T05:31:20.465Z,5.73
2023-05-02T05:33:48.643Z,5.37
2023-05-02T05:36:17.277Z,6.70
2023-05-02T05:38:46.283Z,5.70
2023-05-02T05:41:14.284Z,5.70
2023-05-02T05:43:43.706Z,4.73
2023-05-02T05:46:11.786Z,4.60
2023-05-02T05:48:39.845Z,5.00
2023-05-02T05:51:08.300Z,6.10
2023-05-02T05:53:36.508Z,5.83
2023-05-02T05:56:10.725Z,6.30
2023-05-02T05:58:38.990Z,6.90
2023-05-02T06:01:09.538Z,7.23
2023-05-02T06:03:37.656Z,5.63
2023-05-02T06:06:06.406Z,5.67
2023-05-02T06:08:34.578Z,6.57
2023-05-02T06:11:02.657Z,7.33
2023-05-02T06:13:30.733Z,6.80
2023-05-02T06:16:03.014Z,7.57
2023-05-02T06:18:33.094Z,6.80
2023-05-02T06:21:05.324Z,7.07
2023-05-02T06:23:33.733Z,6.70
2023-05-02T06:26:02.362Z,7.50
2023-05-02T06:28:31.150Z,6.23
2023-05-02T06:31:01.358Z,7.40
2023-05-02T06:33:32.054Z,6.67
2023-05-02T06:36:02.288Z,6.13
2023-05-02T06:38:30.793Z,6.03
2023-05-02T06:40:58.863Z,7.90
2023-05-02T06:43:26.917Z,6.13
2023-05-02T06:45:56.392Z,5.67
2023-05-02T06:48:24.670Z,7.47
2023-05-02T06:50:54.005Z,7.57
2023-05-02T06:53:23.527Z,6.63
2023-05-02T06:55:51.662Z,6.50
2023-05-02T06:58:19.756Z,7.87
2023-05-02T07:00:50.428Z,6.10
2023-05-02T07:03:19.204Z,7.17
2023-05-02T07:05:47.671Z,6.10
2023-05-02T07:08:16.971Z,7.13
2023-05-02T07:10:47.738Z,7.70
2023-05-02T07:13:18.974Z,6.00
2023-05-02T07:15:47.317Z,8.10
2023-05-02T07:18:15.755Z,9.50
2023-05-02T07:20:44.144Z,9.53
2023-05-02T07:23:12.527Z,7.90
2023-05-02T07:25:40.920Z,7.17
2023-05-02T07:28:12.472Z,8.50
2023-05-02T07:30:42.401Z,8.60
2023-05-02T07:33:12.565Z,7.90
2023-05-02T07:35:40.987Z,9.43
2023-05-02T07:38:12.629Z,8.10
2023-05-02T07:40:41.027Z,10.17
2023-05-02T07:43:12.582Z,9.13
2023-05-02T07:45:40.989Z,9.97
2023-05-02T07:48:12.638Z,10.00
2023-05-02T07:50:41.457Z,10.17
2023-05-02T07:53:13.007Z,11.87
2023-05-02T07:55:41.377Z,12.13
2023-05-02T07:58:14.345Z,12.40
2023-05-02T08:00:42.733Z,11.80
2023-05-02T08:03:11.217Z,10.77
2023-05-02T08:05:42.735Z,10.30
2023-05-02T08:08:11.164Z,13.23
2023-05-02T08:10:39.541Z,11.03
2023-05-02T08:13:09.068Z,13.93
2023-05-02T08:15:39.009Z,11.20
2023-05-02T08:18:07.395Z,11.27
2023-05-02T08:20:36.335Z,11.77
2023-05-02T08:23:06.561Z,11.27
2023-05-02T08:25:36.627Z,12.13
2023-05-02T08:28:06.649Z,11.93
2023-05-02T08:30:34.998Z,13.03
2023-05-02T08:33:08.122Z,14.20
2023-05-02T08:35:37.651Z,11.80
2023-05-02T08:38:06.416Z,14.53
2023-05-02T08:40:42.315Z,13.60
2023-05-02T08:43:12.527Z,14.47
2023-05-02T08:45:45.572Z,15.33
2023-05-02T08:48:17.018Z,15.10
2023-05-02T08:50:48.414Z,17.53
2023-05-02T08:53:16.915Z,13.47
2023-05-02T08:55:47.030Z,14.23
2023-05-02T08:58:16.326Z,16.20
2023-05-02T09:00:47.058Z,15.10
2023-05-02T09:03:23.773Z,15.57
2023-05-02T09:05:55.201Z,17.80
2023-05-02T09:08:24.426Z,17.10
2023-05-02T09:10:53.258Z,15.67
2023-05-02T09:13:30.505Z,15.17
2023-05-02T09:15:59.740Z,17.40
2023-05-02T09:18:32.190Z,17.10
2023-05-02T09:21:01.512Z,16.17
2023-05-02T09:23:36.725Z,15.00
2023-05-02T09:26:12.922Z,15.07
2023-05-02T09:28:42.154Z,13.73
2023-05-02T09:31:11.417Z,15.23
2023-05-02T09:33:41.416Z,14.63
2023-05-02T09:36:10.936Z,13.57
2023-05-02T09:38:39.977Z,14.03
2023-05-02T09:41:08.346Z,14.20
2023-05-02T09:43:36.768Z,13.10
2023-05-02T09:46:06.782Z,14.37
2023-05-02T09:48:35.884Z,12.97
2023-05-02T09:51:05.797Z,11.23
2023-05-02T09:53:34.188Z,11.00
2023-05-02T09:56:03.175Z,12.50
2023-05-02T09:58:32.096Z,12.50
2023-05-02T10:01:01.042Z,10.87
2023-05-02T10:03:29.978Z,11.00
2023-05-02T10:05:58.468Z,12.23
2023-05-02T10:08:28.927Z,11.83
2023-05-02T10:10:58.272Z,11.60
2023-05-02T10:13:27.727Z,10.40
2023-05-02T10:15:59.366Z,11.30
2023-05-02T10:18:34.680Z,10.03
2023-05-02T10:21:07.347Z,11.00
2023-05-02T10:23:37.245Z,10.17
2023-05-02T10:26:05.639Z,11.00
2023-05-02T10:28:33.991Z,10.90
2023-05-02T10:31:03.180Z,11.57
2023-05-02T10:33:32.469Z,11.03
2023-05-02T10:36:01.132Z,9.90
2023-05-02T10:38:29.553Z,11.17
2023-05-02T10:41:00.516Z,9.00
2023-05-02T10:43:30.133Z,9.30
2023-05-02T10:45:58.611Z,9.07
2023-05-02T10:48:27.834Z,10.30
2023-05-02T10:50:57.002Z,9.00
2023-05-02T10:53:29.921Z,8.63
2023-05-02T10:56:21.030Z,11.77
2023-05-02T10:58:50.261Z,11.10
2023-05-02T11:01:36.610Z,11.63
2023-05-02T11:04:05.390Z,10.43
2023-05-02T11:06:34.934Z,11.97
2023-05-02T11:09:21.850Z,10.47
2023-05-02T11:11:52.655Z,10.17
2023-05-02T11:14:35.954Z,11.27
2023-05-02T11:17:07.900Z,9.33
2023-05-02T11:19:51.747Z,9.33
2023-05-02T11:22:35.914Z,10.60
2023-05-02T11:25:05.466Z,9.80
2023-05-02T11:27:43.967Z,11.03
2023-05-02T11:30:13.755Z,9.93
2023-05-02T11:33:09.265Z,11.80
2023-05-02T11:35:37.980Z,11.80
2023-05-02T11:38:10.568Z,10.10
2023-05-02T11:40:39.028Z,9.70
2023-05-02T11:43:15.791Z,10.20
2023-05-02T11:45:44.586Z,8.70
2023-05-02T11:48:14.032Z,9.13
2023-05-02T11:50:49.660Z,7.90
2023-05-02T11:53:19.286Z,9.33
2023-05-02T11:55:48.420Z,9.27
2023-05-02T11:58:18.871Z,8.53
2023-05-02T12:00:47.987Z,7.63
2023-05-02T12:03:26.405Z,8.17
2023-05-02T12:05:54.888Z,10.00
2023-05-02T12:08:24.626Z,8.87
2023-05-02T12:10:53.825Z,9.70
2023-05-02T12:13:24.477Z,8.30
2023-05-02T12:15:53.912Z,9.80
2023-05-02T12:18:24.247Z,8.57
2023-05-02T12:20:53.340Z,8.93
2023-05-02T12:23:22.304Z,9.57
2023-05-02T12:25:50.886Z,8.90
2023-05-02T12:28:20.133Z,8.27
2023-05-02T12:30:51.287Z,8.17
2023-05-02T12:33:20.068Z,7.63
2023-05-02T12:35:49.010Z,7.70
2023-05-02T12:38:18.234Z,8.77
2023-05-02T12:40:53.403Z,9.10
2023-05-02T12:43:22.910Z,8.93
2023-05-02T12:45:54.302Z,10.07
2023-05-02T12:48:23.282Z,8.67
2023-05-02T12:50:51.763Z,8.90
2023-05-02T12:53:20.571Z,8.87
2023-05-02T12:55:48.910Z,12.63
2023-05-02T12:58:17.411Z,10.33
2023-05-02T13:00:47.809Z,10.40
2023-05-02T13:03:17.748Z,8.90
2023-05-02T13:05:46.132Z,10.10
2023-05-02T13:08:14.493Z,9.77
2023-05-02T13:10:43.070Z,9.40
2023-05-02T13:13:11.630Z,9.50
2023-05-02T13:15:40.043Z,9.50
2023-05-02T13:18:08.571Z,9.53
2023-05-02T13:20:38.423Z,9.33
2023-05-02T13:23:06.896Z,9.17
2023-05-02T13:25:35.381Z,9.93
2023-05-02T13:28:03.776Z,10.77
2023-05-02T13:30:32.294Z,9.33
2023-05-02T13:33:00.767Z,9.03
2023-05-02T13:35:29.172Z,9.90
2023-05-02T13:37:58.924Z,10.53
2023-05-02T13:40:27.385Z,9.60
2023-05-02T13:42:55.838Z,10.60
2023-05-02T13:45:24.287Z,9.47
2023-05-02T13:47:52.787Z,9.03
2023-05-02T13:50:21.162Z,9.33
2023-05-02T13:52:49.587Z,9.30
2023-05-02T13:55:19.769Z,7.43
2023-05-02T13:57:48.096Z,9.70
2023-05-02T14:00:17.021Z,9.07
2023-05-02T14:02:46.880Z,9.90
2023-05-02T14:05:15.447Z,8.50
2023-05-02T14:07:43.797Z,7.83
2023-05-02T14:10:12.390Z,8.70
2023-05-02T14:12:42.104Z,7.33
2023-05-02T14:15:10.810Z,7.20
2023-05-02T14:17:39.224Z,7.07
2023-05-02T14:20:10.661Z,8.20
2023-05-02T14:22:39.055Z,8.87
2023-05-02T14:25:08.140Z,7.50
2023-05-02T14:27:36.481Z,8.00
2023-05-02T14:30:07.389Z,7.53
2023-05-02T14:32:35.925Z,7.80
2023-05-02T14:35:04.364Z,7.73
2023-05-02T14:37:32.778Z,8.67
2023-05-02T14:40:01.338Z,10.17
2023-05-02T14:42:29.992Z,7.70
2023-05-02T14:44:59.728Z,7.30
2023-05-02T14:47:31.566Z,8.73
2023-05-02T14:50:00.352Z,8.30
2023-05-02T14:52:29.010Z,6.13
2023-05-02T14:54:57.366Z,6.23
2023-05-02T14:57:25.703Z,5.90
2023-05-02T14:59:54.101Z,4.37
2023-05-02T15:02:22.931Z,5.40
2023-05-02T15:04:52.784Z,5.07
2023-05-02T15:07:21.761Z,5.20
2023-05-02T15:09:50.323Z,6.40
2023-05-02T15:12:18.669Z,4.87
2023-05-02T15:14:47.162Z,5.60
2023-05-02T15:17:15.673Z,4.10
2023-05-02T15:19:44.125Z,4.67
2023-05-02T15:22:15.866Z,4.40
2023-05-02T15:24:44.356Z,4.13
2023-05-02T15:27:12.758Z,4.83
2023-05-02T15:29:41.151Z,5.40
2023-05-02T15:32:09.565Z,3.50
2023-05-02T15:34:37.973Z,4.47
2023-05-02T15:37:06.411Z,3.90
2023-05-02T15:39:36.110Z,4.63
2023-05-02T15:42:05.318Z,5.97
2023-05-02T15:44:36.863Z,4.63
2023-05-02T15:47:05.565Z,4.80
2023-05-02T15:49:34.663Z,4.30
2023-05-02T15:52:03.667Z,5.00
2023-05-02T15:54:32.836Z,4.87
2023-05-02T15:57:02.730Z,3.73
2023-05-02T15:59:31.136Z,3.87
2023-05-02T16:01:59.554Z,3.63
2023-05-02T16:04:29.107Z,4.37
2023-05-02T16:06:57.535Z,3.47
2023-05-02T16:09:25.957Z,3.33
2023-05-02T16:11:54.271Z,3.80
2023-05-02T16:14:26.093Z,4.40
2023-05-02T16:16:54.525Z,4.87
2023-05-02T16:19:22.914Z,3.70
2023-05-02T16:21:51.553Z,3.40
2023-05-02T16:24:19.995Z,3.50
2023-05-02T16:26:48.441Z,4.27
2023-05-02T16:29:16.817Z,4.23
2023-05-02T16:31:46.764Z,3.30
2023-05-02T16:34:15.584Z,3.73
2023-05-02T16:36:43.990Z,3.73
2023-05-02T16:39:12.425Z,2.07
2023-05-02T16:41:40.882Z,1.90
2023-05-02T16:44:10.482Z,2.00
2023-05-02T16:46:39.019Z,2.13
2023-05-02T16:49:08.808Z,1.90
2023-05-02T16:51:37.183Z,1.60
2023-05-02T16:54:05.703Z,2.00
2023-05-02T16:56:34.165Z,2.07
2023-05-02T16:59:02.758Z,1.43
2023-05-02T17:01:31.330Z,2.70
2023-05-02T17:03:59.722Z,2.07
2023-05-02T17:06:29.540Z,2.00
2023-05-02T17:08:58.119Z,2.73
2023-05-02T17:11:26.975Z,2.07
2023-05-02T17:13:55.309Z,2.80
2023-05-02T17:16:23.779Z,1.80
2023-05-02T17:18:52.245Z,1.93
2023-05-02T17:21:20.565Z,1.53
2023-05-02T17:23:50.330Z,1.63
2023-05-02T17:26:18.716Z,2.20
2023-05-02T17:28:47.250Z,2.07
2023-05-02T17:31:15.771Z,2.37
2023-05-02T17:33:44.261Z,2.63
2023-05-02T17:36:12.625Z,2.40
2023-05-02T17:38:41.978Z,1.90
2023-05-02T17:41:12.201Z,1.90
2023-05-02T17:43:42.402Z,2.10
2023-05-02T17:46:11.125Z,2.30
2023-05-02T17:48:40.258Z,2.00
2023-05-02T17:51:08.675Z,2.57
2023-05-02T17:53:37.310Z,1.50
2023-05-02T17:56:06.189Z,1.60
2023-05-02T17:58:37.445Z,1.90
2023-05-02T18:01:09.167Z,2.20
2023-05-02T18:03:37.816Z,1.97
2023-05-02T18:06:06.453Z,1.93
2023-05-02T18:08:35.032Z,2.00
2023-05-02T18:11:03.681Z,1.70
2023-05-02T18:13:32.404Z,1.40
2023-05-02T18:16:02.527Z,1.80
2023-05-02T18:18:30.943Z,1.80
2023-05-02T18:20:59.564Z,2.10
2023-05-02T18:23:28.365Z,2.20
2023-05-02T18:25:56.802Z,3.03
2023-05-02T18:28:25.174Z,2.17
2023-05-02T18:30:53.544Z,3.90
2023-05-02T18:33:23.251Z,2.67
2023-05-02T18:35:51.664Z,2.50
2023-05-02T18:38:20.236Z,2.60
2023-05-02T18:40:48.645Z,2.40
2023-05-02T18:43:16.971Z,2.03
2023-05-02T18:45:45.347Z,2.73
2023-05-02T18:48:13.732Z,1.90
2023-05-02T18:50:43.618Z,1.80
2023-05-02T18:53:12.143Z,1.77
2023-05-02T18:55:40.505Z,3.10
2023-05-02T18:58:08.860Z,1.30
2023-05-02T19:00:37.485Z,2.00
2023-05-02T19:03:06.263Z,1.60
2023-05-02T19:05:35.619Z,2.23
2023-05-02T19:08:05.662Z,3.33
2023-05-02T19:10:36.039Z,1.83
2023-05-02T19:13:04.470Z,1.90
2023-05-02T19:15:35.014Z,1.67
2023-05-02T19:18:03.706Z,1.77
2023-05-02T19:20:32.198Z,1.90
2023-05-02T19:23:18.407Z,1.87
2023-05-02T19:25:49.433Z,1.77
2023-05-02T19:28:17.761Z,2.10
2023-05-02T19:30:48.394Z,2.30
2023-05-02T19:33:18.590Z,2.57
2023-05-02T19:35:48.908Z,1.90
2023-05-02T19:38:19.125Z,1.90
2023-05-02T19:40:48.923Z,3.30
2023-05-02T19:43:17.291Z,1.77
2023-05-02T19:45:47.648Z,1.80
2023-05-02T19:48:17.939Z,1.90
2023-05-02T19:50:46.377Z,1.90
2023-05-02T19:53:14.819Z,1.90
2023-05-02T19:55:45.121Z,2.17
2023-05-02T19:58:16.607Z,1.97
2023-05-02T20:00:46.174Z,2.47
2023-05-02T20:03:14.659Z,1.50
2023-05-02T20:05:43.011Z,2.57
2023-05-02T20:08:11.384Z,2.60
2023-05-02T20:10:41.995Z,2.23
2023-05-02T20:13:12.511Z,3.27
2023-05-02T20:15:44.395Z,1.80
2023-05-02T20:18:14.836Z,2.90
2023-05-02T20:20:43.242Z,2.00
2023-05-02T20:23:11.596Z,3.00
2023-05-02T20:25:40.615Z,3.40
2023-05-02T20:28:12.726Z,2.50
2023-05-02T20:30:44.553Z,2.67
2023-05-02T20:33:16.094Z,1.97
2023-05-02T20:35:45.692Z,4.70
2023-05-02T20:38:14.652Z,3.10
2023-05-02T20:40:43.718Z,2.40
2023-05-02T20:43:12.540Z,2.40
2023-05-02T20:45:42.549Z,3.87
2023-05-02T20:48:11.080Z,3.27
2023-05-02T20:50:39.671Z,3.30
2023-05-02T20:53:08.279Z,3.20
2023-05-02T20:55:36.719Z,2.77
2023-05-02T20:58:05.144Z,3.77
2023-05-02T21:00:33.579Z,3.27
2023-05-02T21:03:03.421Z,3.90
2023-05-02T21:05:31.975Z,2.40
2023-05-02T21:08:00.407Z,3.57
2023-05-02T21:10:31.306Z,2.20
2023-05-02T21:12:59.782Z,3.07
2023-05-02T21:15:28.213Z,2.30
2023-05-02T21:18:04.658Z,2.90
2023-05-02T21:20:33.336Z,3.30
2023-05-02T21:23:01.685Z,2.47
2023-05-02T21:25:30.063Z,3.03
2023-05-02T21:27:58.430Z,3.60
2023-05-02T21:30:26.819Z,2.90
2023-05-02T21:32:55.251Z,2.20
2023-05-02T21:35:25.663Z,3.23
2023-05-02T21:37:54.008Z,3.53
2023-05-02T21:40:22.331Z,3.10
2023-05-02T21:42:50.692Z,2.97
2023-05-02T21:45:19.056Z,3.43
2023-05-02T21:47:47.431Z,3.70
2023-05-02T21:50:15.861Z,2.90
2023-05-02T21:52:47.332Z,3.23
2023-05-02T21:55:16.205Z,3.30
2023-05-02T21:57:44.593Z,2.87
2023-05-02T22:00:14.187Z,3.60
2023-05-02T22:02:42.726Z,3.47
2023-05-02T22:05:11.537Z,2.40
2023-05-02T22:07:39.917Z,3.77
2023-05-02T22:10:11.631Z,3.30
2023-05-02T22:12:40.007Z,4.33
2023-05-02T22:15:09.657Z,5.80
2023-05-02T22:17:42.514Z,4.40
2023-05-02T22:20:13.112Z,4.63
2023-05-02T22:22:41.575Z,3.20
2023-05-02T22:25:11.597Z,3.37
2023-05-02T22:27:39.956Z,3.33
2023-05-02T22:30:09.013Z,2.37
2023-05-02T22:32:37.544Z,3.23
2023-05-02T22:35:06.830Z,2.40
2023-05-02T22:37:35.203Z,3.40
2023-05-02T22:40:04.013Z,2.97
2023-05-02T22:42:33.940Z,3.80
2023-05-02T22:45:02.628Z,3.53
2023-05-02T22:47:31.685Z,2.47
2023-05-02T22:50:00.426Z,3.80
2023-05-02T22:52:30.083Z,2.90
2023-05-02T22:54:58.443Z,3.07
2023-05-02T22:57:26.868Z,3.27
2023-05-02T22:59:56.608Z,3.37
2023-05-02T23:02:24.971Z,3.67
2023-05-02T23:04:53.403Z,3.10
2023-05-02T23:07:22.324Z,2.60
2023-05-02T23:09:50.646Z,2.60
2023-05-02T23:12:19.059Z,3.17
2023-05-02T23:14:47.400Z,3.10
2023-05-02T23:17:17.152Z,2.23
2023-05-02T23:19:45.533Z,3.13
2023-05-02T23:22:13.848Z,4.17
2023-05-02T23:24:42.427Z,3.53
2023-05-02T23:27:10.803Z,3.37
2023-05-02T23:29:39.134Z,2.87
2023-05-02T23:32:08.103Z,2.50
2023-05-02T23:34:38.031Z,3.20
2023-05-02T23:37:06.980Z,4.23
2023-05-02T23:39:35.536Z,3.57
2023-05-02T23:42:04.482Z,3.50
2023-05-02T23:44:32.821Z,3.40
2023-05-02T23:47:01.468Z,3.07
2023-05-02T23:49:29.913Z,3.43
2023-05-02T23:52:01.247Z,3.07
2023-05-02T23:54:31.886Z,2.87
2023-05-02T23:57:01.629Z,3.33
2023-05-02T23:59:29.968Z,3.63
